sensor_id;sensor_type;location;lat;lon;timestamp;pressure;altitude;pressure_sealevel;temperature
28305;BMP280;15569;42.652;23.040;2023-08-06T00:50:08;91939.63;;;24.78
28305;BMP280;15569;42.652;23.040;2023-08-06T00:52:34;91953.94;;;24.90
28305;BMP280;15569;42.652;23.040;2023-08-06T00:55:01;91955.94;;;24.94
28305;BMP280;15569;42.652;23.040;2023-08-06T00:57:26;91953.28;;;24.90
28305;BMP280;15569;42.652;23.040;2023-08-06T00:59:52;91940.09;;;24.88
28305;BMP280;15569;42.652;23.040;2023-08-06T01:02:18;91941.38;;;24.93
28305;BMP280;15569;42.652;23.040;2023-08-06T01:04:44;91951.28;;;24.86
28305;BMP280;15569;42.652;23.040;2023-08-06T01:12:54;91893.28;;;24.70
28305;BMP280;15569;42.652;23.040;2023-08-06T01:15:28;91922.13;;;24.55
28305;BMP280;15569;42.652;23.040;2023-08-06T01:17:54;91934.19;;;24.43
28305;BMP280;15569;42.652;23.040;2023-08-06T01:20:19;91940.13;;;24.27
28305;BMP280;15569;42.652;23.040;2023-08-06T01:22:45;91943.53;;;24.29
28305;BMP280;15569;42.652;23.040;2023-08-06T01:25:13;91938.81;;;24.22
28305;BMP280;15569;42.652;23.040;2023-08-06T01:27:49;91953.19;;;23.98
28305;BMP280;15569;42.652;23.040;2023-08-06T01:30:41;91948.38;;;23.94
28305;BMP280;15569;42.652;23.040;2023-08-06T01:33:09;91907.69;;;24.15
28305;BMP280;15569;42.652;23.040;2023-08-06T01:35:40;91892.06;;;24.33
28305;BMP280;15569;42.652;23.040;2023-08-06T01:38:06;91910.56;;;24.42
28305;BMP280;15569;42.652;23.040;2023-08-06T01:40:31;91908.41;;;24.47
28305;BMP280;15569;42.652;23.040;2023-08-06T01:42:58;91910.31;;;24.54
28305;BMP280;15569;42.652;23.040;2023-08-06T01:45:23;91911.56;;;24.61
28305;BMP280;15569;42.652;23.040;2023-08-06T01:47:49;91897.06;;;24.57
28305;BMP280;15569;42.652;23.040;2023-08-06T01:50:14;91891.34;;;24.65
28305;BMP280;15569;42.652;23.040;2023-08-06T01:52:39;91889.75;;;24.43
28305;BMP280;15569;42.652;23.040;2023-08-06T01:55:05;91908.56;;;24.41
28305;BMP280;15569;42.652;23.040;2023-08-06T01:57:30;91914.63;;;24.16
28305;BMP280;15569;42.652;23.040;2023-08-06T01:59:56;91927.13;;;24.17
28305;BMP280;15569;42.652;23.040;2023-08-06T02:02:22;91898.53;;;23.90
28305;BMP280;15569;42.652;23.040;2023-08-06T02:04:47;91883.63;;;24.06
28305;BMP280;15569;42.652;23.040;2023-08-06T02:07:12;91874.38;;;24.15
28305;BMP280;15569;42.652;23.040;2023-08-06T02:09:38;91857.56;;;24.23
28305;BMP280;15569;42.652;23.040;2023-08-06T02:12:04;91858.69;;;24.35
28305;BMP280;15569;42.652;23.040;2023-08-06T02:14:29;91890.66;;;24.01
28305;BMP280;15569;42.652;23.040;2023-08-06T02:16:55;91912.88;;;23.66
28305;BMP280;15569;42.652;23.040;2023-08-06T02:19:20;91941.91;;;23.33
28305;BMP280;15569;42.652;23.040;2023-08-06T02:21:45;91942.41;;;23.03
28305;BMP280;15569;42.652;23.040;2023-08-06T02:24:11;91898.28;;;23.31
28305;BMP280;15569;42.652;23.040;2023-08-06T02:26:36;91890.75;;;23.64
28305;BMP280;15569;42.652;23.040;2023-08-06T02:29:02;91907.00;;;23.82
28305;BMP280;15569;42.652;23.040;2023-08-06T02:31:27;91916.41;;;23.97
28305;BMP280;15569;42.652;23.040;2023-08-06T02:33:52;91906.63;;;24.00
28305;BMP280;15569;42.652;23.040;2023-08-06T02:36:19;91918.09;;;24.17
28305;BMP280;15569;42.652;23.040;2023-08-06T02:38:44;91910.88;;;24.28
28305;BMP280;15569;42.652;23.040;2023-08-06T02:41:09;91903.25;;;24.28
28305;BMP280;15569;42.652;23.040;2023-08-06T02:43:35;91893.59;;;24.25
28305;BMP280;15569;42.652;23.040;2023-08-06T02:46:01;91890.66;;;24.33
28305;BMP280;15569;42.652;23.040;2023-08-06T02:48:26;91895.97;;;24.44
28305;BMP280;15569;42.652;23.040;2023-08-06T02:50:52;91895.91;;;24.48
28305;BMP280;15569;42.652;23.040;2023-08-06T02:53:18;91899.31;;;24.50
28305;BMP280;15569;42.652;23.040;2023-08-06T02:55:47;91909.81;;;24.46
28305;BMP280;15569;42.652;23.040;2023-08-06T02:58:14;91905.69;;;24.45
28305;BMP280;15569;42.652;23.040;2023-08-06T03:00:40;91902.72;;;24.53
28305;BMP280;15569;42.652;23.040;2023-08-06T03:03:05;91892.97;;;24.54
28305;BMP280;15569;42.652;23.040;2023-08-06T03:05:30;91856.38;;;24.45
28305;BMP280;15569;42.652;23.040;2023-08-06T03:07:56;91870.75;;;24.54
28305;BMP280;15569;42.652;23.040;2023-08-06T03:10:21;91877.94;;;24.43
28305;BMP280;15569;42.652;23.040;2023-08-06T03:12:47;91886.97;;;24.43
28305;BMP280;15569;42.652;23.040;2023-08-06T03:15:12;91885.56;;;24.42
28305;BMP280;15569;42.652;23.040;2023-08-06T03:17:38;91902.06;;;23.87
28305;BMP280;15569;42.652;23.040;2023-08-06T03:20:04;91892.72;;;23.68
28305;BMP280;15569;42.652;23.040;2023-08-06T03:22:30;91906.75;;;23.94
28305;BMP280;15569;42.652;23.040;2023-08-06T03:24:55;91897.25;;;23.83
28305;BMP280;15569;42.652;23.040;2023-08-06T03:27:21;91901.25;;;23.92
28305;BMP280;15569;42.652;23.040;2023-08-06T03:29:49;91903.19;;;24.00
28305;BMP280;15569;42.652;23.040;2023-08-06T03:32:15;91900.22;;;24.08
28305;BMP280;15569;42.652;23.040;2023-08-06T03:34:40;91904.22;;;24.17
28305;BMP280;15569;42.652;23.040;2023-08-06T03:37:06;91905.47;;;24.24
28305;BMP280;15569;42.652;23.040;2023-08-06T03:39:31;91902.56;;;24.28
28305;BMP280;15569;42.652;23.040;2023-08-06T03:41:56;91884.56;;;24.27
28305;BMP280;15569;42.652;23.040;2023-08-06T03:44:22;91891.19;;;24.40
28305;BMP280;15569;42.652;23.040;2023-08-06T03:46:47;91898.00;;;24.47
28305;BMP280;15569;42.652;23.040;2023-08-06T03:49:13;91905.63;;;24.47
28305;BMP280;15569;42.652;23.040;2023-08-06T03:51:38;91912.44;;;24.54
28305;BMP280;15569;42.652;23.040;2023-08-06T03:54:03;91913.09;;;24.54
28305;BMP280;15569;42.652;23.040;2023-08-06T03:56:29;91927.59;;;24.59
28305;BMP280;15569;42.652;23.040;2023-08-06T03:58:55;91924.81;;;24.59
28305;BMP280;15569;42.652;23.040;2023-08-06T04:01:20;91935.97;;;24.57
28305;BMP280;15569;42.652;23.040;2023-08-06T04:03:45;91947.00;;;24.61
28305;BMP280;15569;42.652;23.040;2023-08-06T04:06:11;91941.34;;;24.65
28305;BMP280;15569;42.652;23.040;2023-08-06T04:08:36;91938.44;;;24.71
28305;BMP280;15569;42.652;23.040;2023-08-06T04:11:02;91924.00;;;24.64
28305;BMP280;15569;42.652;23.040;2023-08-06T04:13:28;91935.50;;;24.77
28305;BMP280;15569;42.652;23.040;2023-08-06T04:15:54;91943.06;;;24.80
28305;BMP280;15569;42.652;23.040;2023-08-06T04:18:19;91939.50;;;24.84
28305;BMP280;15569;42.652;23.040;2023-08-06T04:20:46;91936.72;;;24.84
28305;BMP280;15569;42.652;23.040;2023-08-06T04:23:11;91938.09;;;24.85
28305;BMP280;15569;42.652;23.040;2023-08-06T04:25:37;91938.78;;;24.85
28305;BMP280;15569;42.652;23.040;2023-08-06T04:28:03;91920.72;;;24.86
28305;BMP280;15569;42.652;23.040;2023-08-06T04:30:28;91918.56;;;24.87
28305;BMP280;15569;42.652;23.040;2023-08-06T04:32:54;91914.31;;;24.92
28305;BMP280;15569;42.652;23.040;2023-08-06T04:35:19;91921.19;;;24.95
28305;BMP280;15569;42.652;23.040;2023-08-06T04:37:45;91926.75;;;24.95
28305;BMP280;15569;42.652;23.040;2023-08-06T04:40:10;91926.13;;;24.92
28305;BMP280;15569;42.652;23.040;2023-08-06T04:42:36;91925.44;;;24.92
28305;BMP280;15569;42.652;23.040;2023-08-06T04:45:02;91926.78;;;24.93
28305;BMP280;15569;42.652;23.040;2023-08-06T04:47:28;91940.78;;;24.89
28305;BMP280;15569;42.652;23.040;2023-08-06T04:49:53;91922.59;;;24.63
28305;BMP280;15569;42.652;23.040;2023-08-06T06:56:11;91971.47;;;25.13
28305;BMP280;15569;42.652;23.040;2023-08-06T06:58:37;91968.22;;;25.31
28305;BMP280;15569;42.652;23.040;2023-08-06T07:01:04;91966.97;;;25.26
28305;BMP280;15569;42.652;23.040;2023-08-06T07:03:29;91968.56;;;25.17
28305;BMP280;15569;42.652;23.040;2023-08-06T07:05:58;91976.25;;;25.45
28305;BMP280;15569;42.652;23.040;2023-08-06T07:08:24;91972.91;;;25.12
28305;BMP280;15569;42.652;23.040;2023-08-06T07:10:49;91977.19;;;25.36
28305;BMP280;15569;42.652;23.040;2023-08-06T07:13:15;91970.06;;;25.69
28305;BMP280;15569;42.652;23.040;2023-08-06T07:15:41;91979.72;;;25.72
28305;BMP280;15569;42.652;23.040;2023-08-06T07:18:07;91977.25;;;25.32
28305;BMP280;15569;42.652;23.040;2023-08-06T07:20:32;91996.63;;;24.79
28305;BMP280;15569;42.652;23.040;2023-08-06T07:23:00;91997.72;;;24.92
28305;BMP280;15569;42.652;23.040;2023-08-06T07:25:25;92006.09;;;24.24
28305;BMP280;15569;42.652;23.040;2023-08-06T07:27:51;91999.31;;;24.83
28305;BMP280;15569;42.652;23.040;2023-08-06T07:30:16;92013.09;;;24.87
28305;BMP280;15569;42.652;23.040;2023-08-06T07:32:42;92009.94;;;24.42
28305;BMP280;15569;42.652;23.040;2023-08-06T07:35:07;91996.41;;;24.56
28305;BMP280;15569;42.652;23.040;2023-08-06T07:37:38;91975.38;;;24.96
28305;BMP280;15569;42.652;23.040;2023-08-06T07:40:03;92003.56;;;24.78
28305;BMP280;15569;42.652;23.040;2023-08-06T07:42:29;92000.84;;;24.76
28305;BMP280;15569;42.652;23.040;2023-08-06T07:44:55;91994.09;;;24.97
28305;BMP280;15569;42.652;23.040;2023-08-06T07:47:21;92009.66;;;25.43
28305;BMP280;15569;42.652;23.040;2023-08-06T07:49:47;91999.75;;;25.77
28305;BMP280;15569;42.652;23.040;2023-08-06T07:52:12;91998.88;;;26.09
28305;BMP280;15569;42.652;23.040;2023-08-06T07:54:38;92011.41;;;26.35
28305;BMP280;15569;42.652;23.040;2023-08-06T07:57:03;92012.41;;;26.48
28305;BMP280;15569;42.652;23.040;2023-08-06T07:59:29;92006.19;;;26.45
28305;BMP280;15569;42.652;23.040;2023-08-06T08:01:54;91997.84;;;26.68
28305;BMP280;15569;42.652;23.040;2023-08-06T08:04:19;92001.91;;;26.95
28305;BMP280;15569;42.652;23.040;2023-08-06T08:06:46;91992.84;;;27.17
28305;BMP280;15569;42.652;23.040;2023-08-06T08:09:11;91982.69;;;27.28
28305;BMP280;15569;42.652;23.040;2023-08-06T08:11:38;91988.97;;;26.63
28305;BMP280;15569;42.652;23.040;2023-08-06T08:14:04;91986.69;;;26.45
28305;BMP280;15569;42.652;23.040;2023-08-06T08:16:29;91991.38;;;26.75
28305;BMP280;15569;42.652;23.040;2023-08-06T08:18:55;91985.56;;;26.36
28305;BMP280;15569;42.652;23.040;2023-08-06T08:21:20;91981.81;;;26.46
28305;BMP280;15569;42.652;23.040;2023-08-06T08:23:45;91985.78;;;26.75
28305;BMP280;15569;42.652;23.040;2023-08-06T08:26:11;91983.66;;;26.31
28305;BMP280;15569;42.652;23.040;2023-08-06T08:28:36;91979.16;;;26.17
28305;BMP280;15569;42.652;23.040;2023-08-06T08:31:01;91989.19;;;26.55
28305;BMP280;15569;42.652;23.040;2023-08-06T08:33:27;91995.81;;;26.44
28305;BMP280;15569;42.652;23.040;2023-08-06T08:35:52;92007.16;;;26.36
28305;BMP280;15569;42.652;23.040;2023-08-06T08:38:17;91993.91;;;25.87
28305;BMP280;15569;42.652;23.040;2023-08-06T08:40:46;91990.31;;;25.90
28305;BMP280;15569;42.652;23.040;2023-08-06T08:43:15;91991.03;;;26.40
28305;BMP280;15569;42.652;23.040;2023-08-06T08:45:42;91992.06;;;26.98
28305;BMP280;15569;42.652;23.040;2023-08-06T08:48:11;91983.44;;;26.61
28305;BMP280;15569;42.652;23.040;2023-08-06T08:50:37;91983.28;;;27.10
28305;BMP280;15569;42.652;23.040;2023-08-06T08:53:03;91982.72;;;26.85
28305;BMP280;15569;42.652;23.040;2023-08-06T08:58:14;91969.53;;;25.87
28305;BMP280;15569;42.652;23.040;2023-08-06T09:00:45;91977.34;;;26.08
28305;BMP280;15569;42.652;23.040;2023-08-06T09:03:11;91978.81;;;26.05
28305;BMP280;15569;42.652;23.040;2023-08-06T09:05:41;91984.69;;;26.19
28305;BMP280;15569;42.652;23.040;2023-08-06T09:08:11;91974.03;;;25.76
28305;BMP280;15569;42.652;23.040;2023-08-06T09:10:39;91989.94;;;25.80
28305;BMP280;15569;42.652;23.040;2023-08-06T09:13:04;91983.03;;;26.28
28305;BMP280;15569;42.652;23.040;2023-08-06T09:15:32;91976.25;;;26.91
28305;BMP280;15569;42.652;23.040;2023-08-06T09:17:57;91980.50;;;27.10
28305;BMP280;15569;42.652;23.040;2023-08-06T09:20:22;91969.16;;;27.37
28305;BMP280;15569;42.652;23.040;2023-08-06T09:22:48;91977.22;;;27.04
28305;BMP280;15569;42.652;23.040;2023-08-06T09:25:24;91964.53;;;27.29
28305;BMP280;15569;42.652;23.040;2023-08-06T09:27:51;91951.50;;;27.42
28305;BMP280;15569;42.652;23.040;2023-08-06T09:30:33;91976.78;;;27.38
28305;BMP280;15569;42.652;23.040;2023-08-06T09:32:59;91965.84;;;27.32
28305;BMP280;15569;42.652;23.040;2023-08-06T09:35:28;91967.66;;;27.19
28305;BMP280;15569;42.652;23.040;2023-08-06T09:37:53;91968.00;;;26.64
28305;BMP280;15569;42.652;23.040;2023-08-06T09:40:27;91959.88;;;26.34
28305;BMP280;15569;42.652;23.040;2023-08-06T09:42:53;91957.28;;;26.50
28305;BMP280;15569;42.652;23.040;2023-08-06T09:45:18;91959.38;;;26.50
28305;BMP280;15569;42.652;23.040;2023-08-06T09:47:44;91966.13;;;26.34
28305;BMP280;15569;42.652;23.040;2023-08-06T09:50:19;91975.91;;;26.33
28305;BMP280;15569;42.652;23.040;2023-08-06T09:52:45;91971.34;;;26.46
28305;BMP280;15569;42.652;23.040;2023-08-06T09:55:12;91962.25;;;26.23
28305;BMP280;15569;42.652;23.040;2023-08-06T09:57:39;91967.63;;;26.31
28305;BMP280;15569;42.652;23.040;2023-08-06T10:00:05;91973.88;;;26.07
28305;BMP280;15569;42.652;23.040;2023-08-06T10:02:34;91969.69;;;25.57
28305;BMP280;15569;42.652;23.040;2023-08-06T10:05:01;91967.97;;;25.68
28305;BMP280;15569;42.652;23.040;2023-08-06T10:07:26;91966.41;;;26.24
28305;BMP280;15569;42.652;23.040;2023-08-06T10:09:52;91971.13;;;26.54
28305;BMP280;15569;42.652;23.040;2023-08-06T10:12:18;91976.63;;;26.79
28305;BMP280;15569;42.652;23.040;2023-08-06T10:14:45;91965.56;;;26.97
28305;BMP280;15569;42.652;23.040;2023-08-06T10:17:12;91969.63;;;27.64
28305;BMP280;15569;42.652;23.040;2023-08-06T10:19:37;91970.31;;;28.22
28305;BMP280;15569;42.652;23.040;2023-08-06T10:22:14;91970.41;;;28.39
28305;BMP280;15569;42.652;23.040;2023-08-06T10:24:58;91967.25;;;27.31
28305;BMP280;15569;42.652;23.040;2023-08-06T10:27:34;91980.84;;;27.83
28305;BMP280;15569;42.652;23.040;2023-08-06T10:30:27;91974.38;;;28.07
28305;BMP280;15569;42.652;23.040;2023-08-06T10:32:55;91965.38;;;27.86
28305;BMP280;15569;42.652;23.040;2023-08-06T10:35:41;91961.25;;;28.03
28305;BMP280;15569;42.652;23.040;2023-08-06T10:38:11;91982.84;;;27.45
28305;BMP280;15569;42.652;23.040;2023-08-06T10:40:39;91992.97;;;26.68
28305;BMP280;15569;42.652;23.040;2023-08-06T10:43:05;91991.69;;;26.88
28305;BMP280;15569;42.652;23.040;2023-08-06T10:45:37;91993.22;;;27.05
28305;BMP280;15569;42.652;23.040;2023-08-06T10:48:03;91997.66;;;27.19
28305;BMP280;15569;42.652;23.040;2023-08-06T10:50:29;92001.28;;;27.36
28305;BMP280;15569;42.652;23.040;2023-08-06T10:52:56;91993.56;;;27.36
28305;BMP280;15569;42.652;23.040;2023-08-06T10:55:29;91998.38;;;27.60
28305;BMP280;15569;42.652;23.040;2023-08-06T10:57:55;91984.59;;;27.75
28305;BMP280;15569;42.652;23.040;2023-08-06T11:00:22;91993.31;;;27.86
28305;BMP280;15569;42.652;23.040;2023-08-06T11:02:49;91975.66;;;27.91
28305;BMP280;15569;42.652;23.040;2023-08-06T11:05:15;91987.22;;;28.00
28305;BMP280;15569;42.652;23.040;2023-08-06T11:07:41;91986.22;;;28.07
28305;BMP280;15569;42.652;23.040;2023-08-06T11:10:09;91991.59;;;27.95
28305;BMP280;15569;42.652;23.040;2023-08-06T11:12:35;91994.16;;;27.82
28305;BMP280;15569;42.652;23.040;2023-08-06T11:15:01;91989.44;;;28.16
28305;BMP280;15569;42.652;23.040;2023-08-06T11:17:28;91984.53;;;28.53
28305;BMP280;15569;42.652;23.040;2023-08-06T11:19:54;91974.47;;;28.95
28305;BMP280;15569;42.652;23.040;2023-08-06T11:22:23;91977.34;;;28.93
28305;BMP280;15569;42.652;23.040;2023-08-06T11:24:48;91976.13;;;29.07
28305;BMP280;15569;42.652;23.040;2023-08-06T11:27:15;91973.25;;;28.90
28305;BMP280;15569;42.652;23.040;2023-08-06T11:29:41;91973.88;;;28.93
28305;BMP280;15569;42.652;23.040;2023-08-06T11:32:10;91979.16;;;29.01
28305;BMP280;15569;42.652;23.040;2023-08-06T11:34:36;91968.69;;;29.34
28305;BMP280;15569;42.652;23.040;2023-08-06T11:37:02;91965.34;;;29.46
28305;BMP280;15569;42.652;23.040;2023-08-06T11:39:29;91977.69;;;29.70
28305;BMP280;15569;42.652;23.040;2023-08-06T11:41:55;91968.94;;;29.61
28305;BMP280;15569;42.652;23.040;2023-08-06T11:44:21;91970.97;;;29.63
28305;BMP280;15569;42.652;23.040;2023-08-06T11:46:52;91963.97;;;29.62
28305;BMP280;15569;42.652;23.040;2023-08-06T11:49:17;91960.97;;;29.51
28305;BMP280;15569;42.652;23.040;2023-08-06T11:51:47;91967.94;;;29.36
28305;BMP280;15569;42.652;23.040;2023-08-06T11:54:12;91969.56;;;28.96
28305;BMP280;15569;42.652;23.040;2023-08-06T11:56:38;91969.31;;;28.67
28305;BMP280;15569;42.652;23.040;2023-08-06T12:01:49;91975.69;;;28.47
28305;BMP280;15569;42.652;23.040;2023-08-06T12:04:15;91973.44;;;28.33
28305;BMP280;15569;42.652;23.040;2023-08-06T12:06:43;91964.81;;;28.39
28305;BMP280;15569;42.652;23.040;2023-08-06T12:09:09;91977.13;;;27.70
28305;BMP280;15569;42.652;23.040;2023-08-06T12:11:35;91979.56;;;27.59
28305;BMP280;15569;42.652;23.040;2023-08-06T12:14:00;91977.00;;;27.53
28305;BMP280;15569;42.652;23.040;2023-08-06T12:16:26;91964.16;;;26.98
28305;BMP280;15569;42.652;23.040;2023-08-06T12:18:51;91976.25;;;26.68
28305;BMP280;15569;42.652;23.040;2023-08-06T12:21:16;91970.63;;;26.70
28305;BMP280;15569;42.652;23.040;2023-08-06T12:23:42;91972.44;;;27.00
28305;BMP280;15569;42.652;23.040;2023-08-06T12:26:07;91969.06;;;27.18
28305;BMP280;15569;42.652;23.040;2023-08-06T12:28:32;91980.22;;;27.18
28305;BMP280;15569;42.652;23.040;2023-08-06T12:30:58;91982.97;;;27.61
28305;BMP280;15569;42.652;23.040;2023-08-06T12:33:23;91975.13;;;27.45
28305;BMP280;15569;42.652;23.040;2023-08-06T12:35:49;91966.56;;;27.31
28305;BMP280;15569;42.652;23.040;2023-08-06T12:38:14;91965.94;;;27.49
28305;BMP280;15569;42.652;23.040;2023-08-06T12:40:40;91974.81;;;27.55
28305;BMP280;15569;42.652;23.040;2023-08-06T12:43:05;91965.56;;;27.40
28305;BMP280;15569;42.652;23.040;2023-08-06T12:45:30;91966.75;;;27.45
28305;BMP280;15569;42.652;23.040;2023-08-06T12:47:56;91955.06;;;27.61
28305;BMP280;15569;42.652;23.040;2023-08-06T12:50:21;91971.94;;;27.78
28305;BMP280;15569;42.652;23.040;2023-08-06T12:52:46;91965.13;;;27.52
28305;BMP280;15569;42.652;23.040;2023-08-06T12:55:12;91951.59;;;27.40
28305;BMP280;15569;42.652;23.040;2023-08-06T12:57:37;91970.69;;;27.73
28305;BMP280;15569;42.652;23.040;2023-08-06T13:00:03;91964.19;;;27.60
28305;BMP280;15569;42.652;23.040;2023-08-06T13:02:30;91955.19;;;29.39
28305;BMP280;15569;42.652;23.040;2023-08-06T13:04:55;91959.03;;;28.43
28305;BMP280;15569;42.652;23.040;2023-08-06T13:07:21;91948.56;;;28.25
28305;BMP280;15569;42.652;23.040;2023-08-06T13:09:46;91966.16;;;27.63
28305;BMP280;15569;42.652;23.040;2023-08-06T13:12:12;91966.06;;;27.65
28305;BMP280;15569;42.652;23.040;2023-08-06T13:14:37;91962.66;;;27.84
28305;BMP280;15569;42.652;23.040;2023-08-06T13:17:02;91969.63;;;28.40
28305;BMP280;15569;42.652;23.040;2023-08-06T13:19:31;91970.22;;;28.43
28305;BMP280;15569;42.652;23.040;2023-08-06T13:22:03;91976.69;;;28.39
28305;BMP280;15569;42.652;23.040;2023-08-06T13:24:30;91977.03;;;27.72
28305;BMP280;15569;42.652;23.040;2023-08-06T13:26:56;91967.91;;;28.12
28305;BMP280;15569;42.652;23.040;2023-08-06T13:29:21;91974.03;;;28.35
28305;BMP280;15569;42.652;23.040;2023-08-06T13:31:47;91972.31;;;28.79
28305;BMP280;15569;42.652;23.040;2023-08-06T13:34:12;91963.31;;;29.45
28305;BMP280;15569;42.652;23.040;2023-08-06T13:36:38;91973.75;;;29.46
28305;BMP280;15569;42.652;23.040;2023-08-06T13:39:03;91971.66;;;30.57
28305;BMP280;15569;42.652;23.040;2023-08-06T13:41:30;91973.78;;;31.14
28305;BMP280;15569;42.652;23.040;2023-08-06T13:43:56;91979.22;;;31.45
28305;BMP280;15569;42.652;23.040;2023-08-06T13:46:21;91980.22;;;31.81
28305;BMP280;15569;42.652;23.040;2023-08-06T13:48:48;91972.69;;;31.90
28305;BMP280;15569;42.652;23.040;2023-08-06T13:51:16;91964.88;;;32.58
28305;BMP280;15569;42.652;23.040;2023-08-06T13:53:42;91972.41;;;32.99
28305;BMP280;15569;42.652;23.040;2023-08-06T13:56:09;91964.19;;;32.57
28305;BMP280;15569;42.652;23.040;2023-08-06T13:58:37;91969.00;;;33.09
28305;BMP280;15569;42.652;23.040;2023-08-06T14:01:03;91962.97;;;33.40
28305;BMP280;15569;42.652;23.040;2023-08-06T14:03:28;91968.34;;;32.45
28305;BMP280;15569;42.652;23.040;2023-08-06T14:05:54;91973.38;;;33.18
28305;BMP280;15569;42.652;23.040;2023-08-06T14:08:22;91961.78;;;33.60
28305;BMP280;15569;42.652;23.040;2023-08-06T14:10:48;91945.38;;;33.39
28305;BMP280;15569;42.652;23.040;2023-08-06T14:13:14;91966.13;;;33.34
28305;BMP280;15569;42.652;23.040;2023-08-06T14:15:39;91964.34;;;33.28
28305;BMP280;15569;42.652;23.040;2023-08-06T14:18:06;91960.31;;;32.37
28305;BMP280;15569;42.652;23.040;2023-08-06T14:20:31;91962.38;;;30.89
28305;BMP280;15569;42.652;23.040;2023-08-06T14:22:57;91976.94;;;30.48
28305;BMP280;15569;42.652;23.040;2023-08-06T14:25:22;91970.50;;;29.90
28305;BMP280;15569;42.652;23.040;2023-08-06T14:27:47;91983.88;;;29.73
28305;BMP280;15569;42.652;23.040;2023-08-06T14:30:13;91981.66;;;29.75
28305;BMP280;15569;42.652;23.040;2023-08-06T14:32:38;91975.97;;;29.60
28305;BMP280;15569;42.652;23.040;2023-08-06T14:35:04;91972.31;;;29.47
28305;BMP280;15569;42.652;23.040;2023-08-06T14:37:30;91975.03;;;30.74
28305;BMP280;15569;42.652;23.040;2023-08-06T14:39:55;91977.25;;;31.15
28305;BMP280;15569;42.652;23.040;2023-08-06T14:42:21;91975.13;;;30.12
28305;BMP280;15569;42.652;23.040;2023-08-06T14:44:46;91982.22;;;31.56
28305;BMP280;15569;42.652;23.040;2023-08-06T14:47:11;91978.13;;;32.46
28305;BMP280;15569;42.652;23.040;2023-08-06T14:49:37;91976.22;;;32.68
28305;BMP280;15569;42.652;23.040;2023-08-06T14:52:03;91974.63;;;32.33
28305;BMP280;15569;42.652;23.040;2023-08-06T14:54:29;91971.84;;;32.84
28305;BMP280;15569;42.652;23.040;2023-08-06T14:56:54;91973.47;;;32.28
28305;BMP280;15569;42.652;23.040;2023-08-06T14:59:19;91969.59;;;32.86
28305;BMP280;15569;42.652;23.040;2023-08-06T15:01:45;91969.41;;;32.13
28305;BMP280;15569;42.652;23.040;2023-08-06T15:04:10;91977.84;;;32.25
28305;BMP280;15569;42.652;23.040;2023-08-06T15:06:36;91972.28;;;33.01
28305;BMP280;15569;42.652;23.040;2023-08-06T15:09:01;91972.63;;;31.65
28305;BMP280;15569;42.652;23.040;2023-08-06T15:11:26;91976.03;;;31.12
28305;BMP280;15569;42.652;23.040;2023-08-06T15:13:52;91976.72;;;29.59
28305;BMP280;15569;42.652;23.040;2023-08-06T15:16:17;91986.13;;;29.85
28305;BMP280;15569;42.652;23.040;2023-08-06T15:18:43;91976.91;;;29.38
28305;BMP280;15569;42.652;23.040;2023-08-06T15:21:09;91988.44;;;29.47
28305;BMP280;15569;42.652;23.040;2023-08-06T15:23:35;91974.53;;;28.77
28305;BMP280;15569;42.652;23.040;2023-08-06T15:26:01;91979.91;;;28.99
28305;BMP280;15569;42.652;23.040;2023-08-06T15:28:27;91966.53;;;29.68
28305;BMP280;15569;42.652;23.040;2023-08-06T15:30:54;91973.25;;;28.74
28305;BMP280;15569;42.652;23.040;2023-08-06T15:33:20;91968.41;;;29.90
28305;BMP280;15569;42.652;23.040;2023-08-06T15:35:46;91975.59;;;29.85
28305;BMP280;15569;42.652;23.040;2023-08-06T15:38:11;91969.09;;;29.41
28305;BMP280;15569;42.652;23.040;2023-08-06T15:40:37;91980.78;;;30.26
28305;BMP280;15569;42.652;23.040;2023-08-06T15:43:02;91983.50;;;29.81
28305;BMP280;15569;42.652;23.040;2023-08-06T15:45:28;91991.97;;;29.95
28305;BMP280;15569;42.652;23.040;2023-08-06T15:47:53;92000.41;;;29.62
28305;BMP280;15569;42.652;23.040;2023-08-06T15:50:19;92000.16;;;28.28
28305;BMP280;15569;42.652;23.040;2023-08-06T15:52:44;92007.25;;;28.62
28305;BMP280;15569;42.652;23.040;2023-08-06T15:55:10;92002.88;;;28.11
28305;BMP280;15569;42.652;23.040;2023-08-06T15:57:35;92005.50;;;27.97
28305;BMP280;15569;42.652;23.040;2023-08-06T16:02:27;92022.97;;;27.13
28305;BMP280;15569;42.652;23.040;2023-08-06T16:04:53;92007.31;;;27.22
28305;BMP280;15569;42.652;23.040;2023-08-06T16:07:19;92020.22;;;26.88
28305;BMP280;15569;42.652;23.040;2023-08-06T16:09:44;92013.00;;;26.28
28305;BMP280;15569;42.652;23.040;2023-08-06T16:12:10;92031.81;;;26.27
28305;BMP280;15569;42.652;23.040;2023-08-06T16:14:36;92030.75;;;26.14
28305;BMP280;15569;42.652;23.040;2023-08-06T16:17:02;92026.88;;;26.03
28305;BMP280;15569;42.652;23.040;2023-08-06T16:19:27;92022.22;;;26.20
28305;BMP280;15569;42.652;23.040;2023-08-06T16:21:53;92037.47;;;26.23
28305;BMP280;15569;42.652;23.040;2023-08-06T16:24:18;92040.28;;;25.97
28305;BMP280;15569;42.652;23.040;2023-08-06T16:26:44;92048.25;;;25.86
28305;BMP280;15569;42.652;23.040;2023-08-06T16:29:09;92046.34;;;26.05
28305;BMP280;15569;42.652;23.040;2023-08-06T16:31:35;92053.19;;;25.55
28305;BMP280;15569;42.652;23.040;2023-08-06T16:34:00;92045.66;;;25.51
28305;BMP280;15569;42.652;23.040;2023-08-06T16:36:26;92046.97;;;25.26
28305;BMP280;15569;42.652;23.040;2023-08-06T16:38:52;92054.34;;;25.66
28305;BMP280;15569;42.652;23.040;2023-08-06T16:41:17;92052.72;;;25.46
28305;BMP280;15569;42.652;23.040;2023-08-06T16:43:43;92059.22;;;25.65
28305;BMP280;15569;42.652;23.040;2023-08-06T16:46:08;92069.31;;;25.79
28305;BMP280;15569;42.652;23.040;2023-08-06T16:48:34;92075.16;;;25.93
28305;BMP280;15569;42.652;23.040;2023-08-06T16:51:01;92072.09;;;25.79
28305;BMP280;15569;42.652;23.040;2023-08-06T16:53:27;92086.88;;;25.71
28305;BMP280;15569;42.652;23.040;2023-08-06T16:55:53;92082.88;;;25.66
28305;BMP280;15569;42.652;23.040;2023-08-06T16:58:19;92085.09;;;25.60